Bremerton, WA

1:11 PM PST on February 27, 2017 (GMT -0800)
Old Middle School | | Change Station

Elev 302 ft 47.59 °N, 122.62 °W | Updated 15 seconds ago

Overcast
Overcast
40.9 °F
Feels Like 41 °F
N
2.0
Wind Variable Wind from SW

Today
High -- | Low -- °F
--% Chance of Precip.
Yesterday
High -- | Low -- °F
Precip. -- in
Pressure 29.69 in
Visibility 10.0 miles
Clouds Mostly Cloudy 1300 ft
Windchill 41 °F
Dew Point 34 °F
Humidity 78%
Rainfall 0.02 in
Snow Depth Not available.
6:54 AM 5:52 PM
New Moon, 2% visible
METAR KPWT 272055Z AUTO 19012G17KT 10SM BKN013 04/03 A2969 RMK AO1 57017
Pressure 29.69 in
Visibility 10.0 miles
Clouds Mostly Cloudy 1300 ft
Windchill 41 °F
Dew Point 34 °F
Humidity 78%
Rainfall 0.02 in
Snow Depth Not available.
6:54 AM 5:52 PM
New Moon, 2% visible
METAR KPWT 272055Z AUTO 19012G17KT 10SM BKN013 04/03 A2969 RMK AO1 57017

Get Your Daily Forecast Email!

Thanks for signing up!

Be on the lookout for a verification email in your inbox.

You'll start receiving the daily forecast at 8 AM.

×

10-Day Weather Forecast

Almanac

Astronomy

Feb. 27, 2017 Rise Set
Actual Time
Civil Twilight
Nautical Twilight
Astronomical Twilight
Moon
Length of Visible Light
Length of Day
Tomorrow will be .
, % of the Moon is Illuminated

Today's Extremes

State Highs State Lows

Community

WunderPhotos

Upload Photos

1,962,540 photos uploaded!

WunderBlog® & News

Nearby

Air Quality

  Air Quality AQ Index Pollutant
Not available.

Snow Depth

Station Depth Elevation

Earthquake Activity

City Distance Mag. Time & Date
Minimum magnitude displayed is 2.5.

Coastal Water Temperatures

Place Temperature

Stations

Nearby Weather Stations

Station Location Temp. Windchill Dew Point Humidity Wind Precip. Elev Updated Type
                   

Watches & Warnings

There are currently no watches in effect.